Flight Track Log - Related Links

Times and Time Zones

All times are in EDT time to prevent confusion due to time zone crossing. See the RPA3228 flight status page for this flight to view local times or setup timezone preferences in your user account.

Time Position Orientation Groundspeed Altitude Reporting Facility
EDT Latitude Longitude Course Direction KTS MPH feet Rate Location/Type
Mon 07:43:05 AM 36.1500 -86.7000 56° Northeast 167 192 1,600  Level Nashville TRACON
Mon 07:44:05 AM 36.1500 -86.7500 270° West 201 231 3,700 2,429 Climbing Nashville TRACON
Mon 07:45:00 AM 36.2504 -86.2998 64° Northeast  Level Estimated
Mon 07:45:11 AM 36.2167 -86.7167 22° Northeast 294 338 6,700  Level Nashville TRACON
Mon 07:46:00 AM 36.2921 -86.1734 68° East  Level Estimated
Mon 07:46:39 AM 36.2050 -86.5708 96° East 325 374 10,700  Level Memphis Center
Mon 07:47:00 AM 36.3336 -86.0469 50° Northeast  Level Estimated
Mon 07:47:39 AM 36.2036 -86.4553 91° East 325 374 12,900  Level Memphis Center
Mon 07:48:00 AM 36.3751 -85.9203 56° Northeast  Level Estimated
Mon 07:48:39 AM 36.2017 -86.3344 91° East 335 386 15,600  Level Memphis Center
Mon 07:49:39 AM 36.1994 -86.2058 91° East 347 399 17,900 2,300 Climbing Memphis Center
Mon 07:50:39 AM 36.2053 -86.0719 87° East 381 438 20,200 2,050 Climbing Memphis Center
Mon 07:52:58 AM 36.3247 -85.7900 62° Northeast 412 474 24,700 1,851 Climbing Indianapolis Center
Mon 07:54:00 AM 36.3872 -85.6617 59° Northeast 425 489 26,400 1,707 Climbing Indianapolis Center
Mon 07:55:01 AM 36.4511 -85.5269 59° Northeast 444 511 28,200 1,268 Climbing Indianapolis Center
Mon 07:56:03 AM 36.5156 -85.3928 59° Northeast 449 517 29,000 976 Climbing Indianapolis Center
Mon 07:57:04 AM 36.5794 -85.2558 60° Northeast 454 522 30,200 1,463 Climbing Indianapolis Center
Mon 07:58:06 AM 36.6347 -85.1131 64° Northeast 456 525 32,000 1,366 Climbing Indianapolis Center
Mon 07:59:07 AM 36.6806 -84.9661 69° East 452 520 33,000 488 Climbing Indianapolis Center
Mon 08:00:09 AM 36.7333 -84.7875 70° East 458 527 33,000  Level Indianapolis Center
Mon 08:01:11 AM 36.7794 -84.6411 68° East 453 521 33,000  Level Indianapolis Center
Mon 08:02:12 AM 36.8253 -84.4889 69° East 459 528 33,000  Level Indianapolis Center
Mon 08:03:14 AM 36.8697 -84.3389 70° East 460 529 33,000  Level Indianapolis Center
Mon 08:04:15 AM 36.9158 -84.1881 69° East 463 533 33,000  Level Indianapolis Center
Mon 08:05:17 AM 36.9608 -84.0364 70° East 466 536 33,000  Level Indianapolis Center
Mon 08:06:18 AM 37.0058 -83.8833 70° East 468 539 33,000  Level Indianapolis Center
Mon 08:07:20 AM 37.0508 -83.7303 70° East 466 536 33,000  Level Indianapolis Center
Mon 08:08:21 AM 37.0967 -83.5772 69° East 467 537 33,000  Level Indianapolis Center
Mon 08:09:23 AM 37.1503 -83.3956 70° East 469 540 33,000  Level Indianapolis Center
Mon 08:10:25 AM 37.1944 -83.2389 70° East 473 544 33,000  Level Indianapolis Center
Mon 08:11:26 AM 37.2408 -83.0836 69° East 471 542 33,000  Level Indianapolis Center
Mon 08:12:28 AM 37.2842 -82.9275 71° East 468 539 33,000  Level Indianapolis Center
Mon 08:13:30 AM 37.3289 -82.7700 70° East 472 543 33,000  Level Indianapolis Center
Mon 08:14:31 AM 37.3739 -82.6139 70° East 472 543 33,000  Level Indianapolis Center
Mon 08:15:33 AM 37.4175 -82.4575 71° East 472 543 33,000  Level Indianapolis Center
Mon 08:16:35 AM 37.4608 -82.3017 71° East 471 542 33,000  Level Indianapolis Center
Mon 08:17:37 AM 37.5033 -82.1444 71° East 472 543 33,000  Level Indianapolis Center
Mon 08:18:38 AM 37.5539 -81.9608 71° East 474 545 33,000  Level Indianapolis Center
Mon 08:19:40 AM 37.5981 -81.8028 71° East 477 549 33,000  Level Indianapolis Center
Mon 08:20:42 AM 37.6414 -81.6431 71° East 479 551 33,000  Level Indianapolis Center
Mon 08:21:43 AM 37.6842 -81.4842 71° East 477 549 33,000  Level Indianapolis Center
Mon 08:22:45 AM 37.7303 -81.3150 71° East 478 550 33,000  Level Indianapolis Center
Mon 08:23:47 AM 37.7708 -81.1608 72° East 477 549 33,000  Level Indianapolis Center
Mon 08:24:48 AM 37.8200 -81.0153 67° East 473 544 33,000  Level Indianapolis Center
Mon 08:25:50 AM 37.8733 -80.8631 66° East 475 547 33,000  Level Indianapolis Center
Mon 08:26:52 AM 37.9375 -80.6819 66° East 472 543 33,000  Level Indianapolis Center
Mon 08:27:54 AM 37.9908 -80.5300 66° East 473 544 33,000 -244 Level Indianapolis Center
Mon 08:28:55 AM 38.0403 -80.3869 66° East 477 549 32,500 -732 Descending Indianapolis Center
Mon 08:29:57 AM 38.0989 -80.2222 66° East 479 551 31,500 -726 Descending Indianapolis Center
Mon 08:30:59 AM 38.1583 -80.0553 66° East 480 552 31,000 -242 Descending Indianapolis Center
Mon 08:32:01 AM 38.2133 -79.9006 66° East 487 560 31,000  Level Indianapolis Center
Mon 08:33:02 AM 38.2664 -79.7472 66° East 487 560 31,000  Level Indianapolis Center
Mon 08:34:04 AM 38.3303 -79.5622 66° East 485 558 31,000  Level Indianapolis Center
Mon 08:35:06 AM 38.3822 -79.4089 67° East 483 556 31,000 -729 Level Indianapolis Center
Mon 08:36:24 AM 38.4397 -79.2181 69° East 481 554 29,300 -1,765 Descending Washington Center
Mon 08:37:22 AM 38.4694 -79.0550 77° East 476 548 27,000 -1,462 Descending Washington Center
Mon 08:38:23 AM 38.4975 -78.8733 79° East 471 542 26,400 -1,475 Descending Washington Center
Mon 08:39:24 AM 38.5206 -78.7125 80° East 471 542 24,000 -2,118 Descending Washington Center
Mon 08:40:22 AM 38.5475 -78.5542 78° East 465 535 22,200 -1,462 Descending Washington Center
Mon 08:41:23 AM 38.5722 -78.3986 78° East 454 522 21,100 -1,525 Descending Washington Center
Mon 08:42:24 AM 38.5983 -78.2481 77° East 443 510 19,100 -1,835 Descending Washington Center
Mon 08:43:24 AM 38.6389 -78.1142 69° East 421 484 17,400 -1,900 Descending Washington Center
Mon 08:44:24 AM 38.6833 -77.9800 67° East 409 471 15,300 -2,000 Descending Washington Center
Mon 08:45:24 AM 38.7253 -77.8536 67° East 398 458 13,400 -1,729 Descending Washington Center
Mon 08:46:22 AM 38.7814 -77.7567 53° Northeast 362 417 11,900 -1,373 Descending Washington Center
Mon 08:47:22 AM 38.8350 -77.6650 53° Northeast 333 383 10,700 -1,200 Descending Washington Center
Mon 08:47:52 AM 38.8500 -77.6167 68° East 323 372 10,100 -1,286 Descending Potomac TRACON
Mon 08:48:46 AM 38.8833 -77.5167 67° East 317 365 8,900 -1,350 Descending Potomac TRACON
Mon 08:49:52 AM 38.9000 -77.4000 80° East 304 350 7,400 -1,300 Descending Potomac TRACON
Mon 08:50:46 AM 38.8500 -77.3333 134° Southeast 292 336 6,300 -722 Descending Potomac TRACON
Mon 08:51:40 AM 38.8167 -77.2500 117° Southeast 289 333 6,100 -158 Descending Potomac TRACON
Mon 08:52:40 AM 38.7833 -77.1667 117° Southeast 244 281 6,000 -211 Descending Potomac TRACON
Mon 08:53:34 AM 38.7500 -77.1167 131° Southeast 246 283 5,700 -737 Descending Potomac TRACON
Mon 08:54:34 AM 38.6833 -77.1000 169° South 233 268 4,600 -992 Descending Potomac TRACON
Mon 08:55:35 AM 38.6500 -77.0667 142° Southeast 238 274 3,700 -793 Descending Potomac TRACON
Mon 08:56:35 AM 38.6833 -77.0167 49° Northeast 186 214 3,000 -684 Descending Potomac TRACON
Mon 08:57:29 AM 38.7167 -77.0167 360° North 169 194 2,400 -722 Descending Potomac TRACON
Mon 08:58:23 AM 38.7500 -77.0333 339° North 150 173 1,700 -789 Descending Potomac TRACON
Mon 08:59:23 AM 38.8000 -77.0333 360° North 140 161 900 -800 Descending Potomac TRACON

Login

Don't have an account? Register now (free) for customized features, flight alerts, and more!